Share

Ixtapa Zihuatanejo, Mexico

Ixtapa-Zihuatanejo International (MMZH) Elev 20 ft | 17.60 °N, 101.46 °W | Change Station

Current weather conditions updated 8 hours ago

Clear
Clear
74 °F
Feels Like 74 °F
N
4
Wind Variable Wind from East
Gusts mph
Sunrise 7:25 AM
Sunset 8:03 PM
Moon Waning Gibbous

Today is forecast to be nearly the same temperature as yesterday.

Pressure 29.86 in
Visibility 8.0 miles
Clouds Scattered Clouds 12000 ft
Dew Point 65 °F
Humidity 73%
Rainfall 0.00 in
Snow Depth Not available.
UV 0 out of 16
Pollen Not available.
Air Quality Not available.
Flu Activity Not available.
METAR MMZH 210145Z 23008KT 8SM SCT120 29/24 A2986 RMK 8/030 HZY

More Conditions Fewer Conditions

Pressure 29.86 in
Visibility 8.0 miles
Clouds Scattered Clouds 12000 ft
Dew Point 65 °F
Humidity 73%
Rainfall 0.00 in
Snow Depth Not available.
UV 0 out of 16
Pollen Not available.
Air Quality Not available.
Flu Activity Not available.
METAR MMZH 210145Z 23008KT 8SM SCT120 29/24 A2986 RMK 8/030 HZY

More Conditions Fewer Conditions

10-Day Weather Forecast

Almanac

Astronomy

Apr. 21, 2014 Rise Set
Actual Time 7:25 AM CDT 8:03 PM CDT
Civil Twilight 7:03 AM CDT 8:26 PM CDT
Nautical Twilight 6:37 AM CDT 8:52 PM CDT
Astronomical Twilight 6:10 AM CDT 9:18 PM CDT
Moon 1:23 AM CDT 1:04 PM CDT
Length of Visible Light 13h 22m
Length of Day
12h 38m
Tomorrow will be 0m 54s longer.
Waning Gibbous, 60% of the Moon is Illuminated
Today
Waning Gibbous
Apr 22
Last Quarter
Apr 29
New
May 6
First Quarter
May 14
Full

Yesterday's Extremes

Country Highs Country Lows

Community

  • Snowy Robin
    Snowy Robin
  • Sun Pillar and Geese
    Sun Pillar and Geese
  • Showers on the Way
    Showers on the Way
  • Easter Morning Fog
    Easter Morning Fog
  • Easter Dance
    Easter Dance

WunderPhotos

Upload Photos

1,703,585 photos uploaded!

Nearby

Snow Depth

Not available.

Coastal Water Temperatures

Place Temperature
No Stations Reporting

Earthquake Activity

City Distance Mag. Time & Date
No recent earthquake activity has been reported nearby.
Minimum magnitude displayed is 2.5.

Nearby Weather Stations

There are no personal weather stations in this area.

What do you think?

We're not finished. Please let us know what you like, what you don't like, and what you are still missing.